Time;durP1;ratioP1;P1;durP2;ratioP2;P2;SDS_P1;SDS_P2;PMS_P1;PMS_P2;Temp;Humidity;BMP_temperature;BMP_pressure;BME280_temperature;BME280_humidity;BME280_pressure;Samples;Min_cycle;Max_cycle;Signal;HPM_P1;HPM_P2
2023/06/25 00:02:08;;;;;;;6.18;2.72;;;19.70;99.90;;;;;;4991305;28;20167;-68
2023/06/25 00:04:33;;;;;;;3.72;2.38;;;19.70;99.90;;;;;;4990931;28;20722;-68
2023/06/25 00:06:59;;;;;;;5.53;2.28;;;19.60;99.90;;;;;;4991298;28;20518;-67
2023/06/25 00:09:25;;;;;;;3.78;2.60;;;19.60;99.90;;;;;;4991857;28;20179;-69
2023/06/25 00:11:50;;;;;;;3.35;2.40;;;19.70;99.90;;;;;;4995022;28;20175;-69
2023/06/25 00:14:16;;;;;;;3.70;2.28;;;19.70;99.90;;;;;;4995580;28;20226;-68
2023/06/25 00:16:42;;;;;;;4.85;2.38;;;19.70;99.90;;;;;;4996735;28;20180;-68
2023/06/25 00:19:07;;;;;;;7.15;2.88;;;19.60;99.90;;;;;;4999072;28;20215;-69
2023/06/25 00:21:34;;;;;;;6.90;2.55;;;19.60;99.90;;;;;;4995593;28;20187;-68
2023/06/25 00:23:59;;;;;;;3.20;2.10;;;19.60;99.90;;;;;;4995014;28;20202;-69
2023/06/25 00:26:27;;;;;;;3.55;2.30;;;19.50;99.90;;;;;;4995213;28;20500;-68
2023/06/25 00:28:53;;;;;;;3.88;2.20;;;19.50;99.90;;;;;;4994631;28;20172;-68
2023/06/25 00:31:18;;;;;;;4.47;2.70;;;19.20;99.90;;;;;;4994630;28;20175;-68
2023/06/25 00:33:44;;;;;;;4.55;2.40;;;19.40;99.90;;;;;;4994580;28;20182;-69
2023/06/25 00:36:10;;;;;;;3.38;2.45;;;19.40;99.90;;;;;;4989556;28;20207;-69
2023/06/25 00:38:39;;;;;;;3.75;2.33;;;19.40;99.90;;;;;;4975011;28;20230;-69
2023/06/25 00:41:09;;;;;;;4.00;2.60;;;19.30;99.90;;;;;;4974908;28;20195;-69
2023/06/25 00:43:41;;;;;;;5.35;2.55;;;19.30;99.90;;;;;;4993826;28;20269;-68
2023/06/25 00:46:15;;;;;;;3.00;2.30;;;19.30;99.90;;;;;;4994357;28;20392;-68
2023/06/25 00:48:45;;;;;;;5.20;2.70;;;19.30;99.90;;;;;;4994300;28;20179;-69
2023/06/25 00:51:15;;;;;;;4.25;2.40;;;19.30;99.90;;;;;;4994278;28;20179;-69
2023/06/25 00:53:41;;;;;;;5.65;2.67;;;19.20;99.90;;;;;;4994199;28;20182;-69
2023/06/25 00:56:07;;;;;;;4.40;2.58;;;19.20;99.90;;;;;;4994212;28;20183;-69
2023/06/25 00:58:37;;;;;;;4.10;2.60;;;19.20;99.90;;;;;;4993928;28;20186;-69
2023/06/25 01:01:05;;;;;;;4.93;2.63;;;19.20;99.90;;;;;;4993983;28;20210;-69
2023/06/25 01:03:37;;;;;;;4.40;2.05;;;19.20;99.90;;;;;;4993811;28;20171;-69
2023/06/25 01:06:15;;;;;;;4.30;2.35;;;19.20;99.90;;;;;;4994059;28;20237;-69
2023/06/25 01:08:49;;;;;;;4.38;2.72;;;19.20;99.90;;;;;;4993872;28;20170;-69
2023/06/25 01:11:14;;;;;;;3.63;2.50;;;19.10;99.90;;;;;;4993694;28;20639;-69
2023/06/25 01:13:40;;;;;;;5.97;2.30;;;19.10;99.90;;;;;;4993725;28;20250;-69
2023/06/25 01:16:06;;;;;;;2.80;2.10;;;19.10;99.90;;;;;;4994033;28;20183;-68
2023/06/25 01:18:32;;;;;;;3.83;2.33;;;19.00;99.90;;;;;;4993436;28;20560;-68
2023/06/25 01:20:58;;;;;;;2.78;2.05;;;21.00;99.90;;;;;;4993545;28;20187;-68
2023/06/25 01:23:24;;;;;;;2.70;2.20;;;18.90;99.90;;;;;;4993672;28;20634;-68
2023/06/25 01:25:50;;;;;;;3.60;1.95;;;19.00;99.90;;;;;;4993570;28;20218;-69
2023/06/25 01:28:20;;;;;;;2.55;1.90;;;18.90;99.90;;;;;;4975830;28;20233;-69
2023/06/25 01:30:47;;;;;;;3.95;2.10;;;18.90;99.90;;;;;;4993438;28;20175;-69
2023/06/25 01:33:15;;;;;;;3.25;2.20;;;18.80;99.90;;;;;;4993419;28;20187;-69
2023/06/25 01:35:42;;;;;;;3.53;2.10;;;18.80;99.90;;;;;;4993411;28;20222;-68
2023/06/25 01:38:08;;;;;;;3.25;1.98;;;18.80;99.90;;;;;;4993122;28;20187;-70
2023/06/25 01:40:33;;;;;;;5.00;2.33;;;18.70;99.90;;;;;;4993260;28;20635;-69
2023/06/25 01:42:59;;;;;;;2.65;2.00;;;18.70;99.90;;;;;;4993539;28;20171;-69
2023/06/25 01:45:25;;;;;;;3.22;1.88;;;18.70;99.90;;;;;;4993532;28;20249;-69
2023/06/25 01:47:50;;;;;;;2.63;1.90;;;18.70;99.90;;;;;;4993163;28;20171;-69
2023/06/25 01:50:16;;;;;;;2.83;1.90;;;18.70;99.90;;;;;;4993007;28;20257;-69
2023/06/25 01:52:42;;;;;;;2.72;1.90;;;18.70;99.90;;;;;;4993017;28;20214;-68
2023/06/25 01:55:07;;;;;;;4.65;2.10;;;18.70;99.90;;;;;;4992947;28;20226;-69
2023/06/25 01:57:33;;;;;;;3.35;2.20;;;;;;;;;;4992959;28;20168;-68
2023/06/25 01:59:59;;;;;;;4.55;2.30;;;18.60;99.90;;;;;;4993055;28;20171;-68
2023/06/25 02:02:24;;;;;;;4.22;2.08;;;18.60;99.90;;;;;;4992816;28;20622;-68
2023/06/25 02:04:50;;;;;;;4.00;1.98;;;18.50;99.90;;;;;;4992656;28;20290;-68
2023/06/25 02:07:16;;;;;;;4.88;2.40;;;18.50;99.90;;;;;;4992819;28;20174;-68
2023/06/25 02:09:41;;;;;;;3.38;2.10;;;18.40;99.90;;;;;;4992712;28;20615;-69
2023/06/25 02:12:07;;;;;;;2.75;2.30;;;18.40;99.90;;;;;;4975393;28;20650;-67
2023/06/25 02:14:33;;;;;;;3.58;2.33;;;18.40;99.90;;;;;;4975228;28;20297;-69
2023/06/25 02:16:59;;;;;;;4.72;2.22;;;18.40;99.90;;;;;;4992656;28;20223;-69
2023/06/25 02:19:24;;;;;;;5.60;1.77;;;18.50;99.90;;;;;;4992572;28;20603;-69
2023/06/25 02:21:50;;;;;;;2.65;1.98;;;18.40;99.90;;;;;;4992538;28;20171;-68
2023/06/25 02:24:15;;;;;;;3.20;2.38;;;18.40;99.90;;;;;;4992376;28;20225;-68
2023/06/25 02:26:42;;;;;;;3.03;2.10;;;;;;;;;;4992552;28;20646;-68
2023/06/25 02:29:07;;;;;;;3.53;2.25;;;18.40;99.90;;;;;;4992593;28;20183;-68
2023/06/25 02:31:33;;;;;;;3.05;2.08;;;18.40;99.90;;;;;;4992381;28;20558;-69
2023/06/25 02:33:59;;;;;;;3.83;2.20;;;18.30;99.90;;;;;;4992060;28;20272;-69
2023/06/25 02:36:24;;;;;;;3.13;1.90;;;18.30;99.90;;;;;;4992368;28;20637;-69
2023/06/25 02:38:50;;;;;;;4.18;1.85;;;18.20;99.90;;;;;;4992265;28;20254;-70
2023/06/25 02:41:16;;;;;;;3.72;2.15;;;18.30;99.90;;;;;;4992254;28;20194;-69
2023/06/25 02:43:41;;;;;;;3.88;2.00;;;18.30;99.90;;;;;;4992046;28;20222;-68
2023/06/25 02:46:07;;;;;;;2.72;2.05;;;18.30;99.90;;;;;;4992135;28;20178;-69
2023/06/25 02:48:38;;;;;;;2.88;2.08;;;18.30;99.90;;;;;;4977295;28;20176;-69
2023/06/25 02:51:03;;;;;;;3.50;2.10;;;18.20;99.90;;;;;;4972631;28;20215;-68
2023/06/25 02:53:29;;;;;;;3.25;2.25;;;18.30;99.90;;;;;;4972599;28;20199;-67
2023/06/25 02:55:54;;;;;;;3.15;2.10;;;18.20;99.90;;;;;;4973474;28;20176;-69
2023/06/25 02:58:20;;;;;;;4.70;2.33;;;;;;;;;;4972919;28;20274;-69
2023/06/25 03:00:46;;;;;;;3.67;2.10;;;18.10;99.90;;;;;;4975720;28;20186;-69
2023/06/25 03:03:12;;;;;;;7.55;2.20;;;18.20;99.90;;;;;;4975327;28;20643;-70
2023/06/25 03:05:37;;;;;;;2.53;2.20;;;18.10;99.90;;;;;;4973092;28;20682;-69
2023/06/25 03:08:03;;;;;;;3.17;2.40;;;18.10;99.90;;;;;;4972693;28;20191;-69
2023/06/25 03:10:30;;;;;;;3.28;1.95;;;18.00;99.90;;;;;;4972605;28;20182;-68
2023/06/25 03:12:56;;;;;;;5.38;2.05;;;18.00;99.90;;;;;;4972442;28;20172;-68
2023/06/25 03:15:21;;;;;;;5.32;2.30;;;18.00;99.90;;;;;;4972422;28;20276;-68
2023/06/25 03:17:47;;;;;;;3.53;2.28;;;17.90;99.90;;;;;;4970824;28;20754;-69
2023/06/25 03:20:13;;;;;;;3.47;2.30;;;18.00;99.90;;;;;;4972151;28;20163;-69
2023/06/25 03:22:39;;;;;;;3.20;2.10;;;18.00;99.90;;;;;;4972010;28;20546;-70
2023/06/25 03:25:06;;;;;;;3.90;2.55;;;18.00;99.90;;;;;;4972347;28;20222;-69
2023/06/25 03:27:36;;;;;;;4.32;2.30;;;18.00;99.90;;;;;;4972214;28;20168;-69
2023/06/25 03:30:03;;;;;;;3.88;2.60;;;17.90;99.90;;;;;;4972153;28;20168;-69
2023/06/25 03:32:29;;;;;;;3.78;2.22;;;17.90;99.90;;;;;;4972054;28;20243;-69
2023/06/25 03:34:55;;;;;;;4.53;2.72;;;17.80;99.90;;;;;;4954825;28;20694;-69
2023/06/25 03:37:21;;;;;;;4.85;2.60;;;17.80;99.90;;;;;;4972003;28;20266;-69
2023/06/25 03:39:47;;;;;;;4.30;2.25;;;17.80;99.90;;;;;;4971964;28;20180;-68
2023/06/25 03:42:13;;;;;;;3.95;2.63;;;17.80;99.90;;;;;;4970644;28;20657;-68
2023/06/25 03:44:45;;;;;;;4.43;2.63;;;17.60;99.90;;;;;;4972779;28;20226;-68
2023/06/25 03:47:11;;;;;;;4.13;2.47;;;17.80;99.90;;;;;;4975874;28;20647;-69
2023/06/25 03:49:36;;;;;;;3.50;2.30;;;17.70;99.90;;;;;;4975781;28;20510;-69
2023/06/25 03:52:02;;;;;;;4.75;2.78;;;17.70;99.90;;;;;;4976078;28;20168;-69
2023/06/25 03:54:28;;;;;;;3.05;2.30;;;17.90;99.90;;;;;;4976026;28;20175;-69
2023/06/25 03:56:54;;;;;;;5.68;2.60;;;;;;;;;;4975643;28;20175;-70
2023/06/25 03:59:19;;;;;;;4.82;2.75;;;17.70;99.90;;;;;;4975666;28;20226;-69
2023/06/25 04:01:45;;;;;;;4.65;2.42;;;17.70;99.90;;;;;;4975756;28;20207;-69
2023/06/25 04:04:10;;;;;;;3.53;2.60;;;17.70;99.90;;;;;;4975488;28;20212;-69
2023/06/25 04:06:36;;;;;;;4.15;2.58;;;17.60;99.90;;;;;;4975769;28;20179;-69
2023/06/25 04:09:02;;;;;;;5.20;2.42;;;17.70;99.90;;;;;;4975620;28;20596;-69
2023/06/25 04:11:27;;;;;;;3.67;2.30;;;17.70;99.90;;;;;;4975500;28;20222;-69
2023/06/25 04:13:53;;;;;;;4.28;2.40;;;17.70;99.90;;;;;;4975449;28;20231;-69
2023/06/25 04:16:18;;;;;;;3.75;2.25;;;17.70;99.90;;;;;;4975528;28;20673;-69
2023/06/25 04:18:44;;;;;;;4.28;2.60;;;17.60;99.90;;;;;;4975117;28;20275;-68
2023/06/25 04:21:09;;;;;;;6.18;2.67;;;17.60;99.90;;;;;;4975507;28;20650;-69
2023/06/25 04:23:35;;;;;;;5.53;2.30;;;17.60;99.90;;;;;;4975300;28;20227;-69
2023/06/25 04:26:01;;;;;;;4.43;2.55;;;17.70;99.90;;;;;;4975341;28;20548;-69
2023/06/25 04:28:26;;;;;;;5.00;2.50;;;17.60;99.90;;;;;;4975307;28;20172;-69
2023/06/25 04:30:52;;;;;;;4.25;2.88;;;17.60;99.90;;;;;;4975053;28;20635;-69
2023/06/25 04:33:19;;;;;;;3.72;2.30;;;17.60;99.90;;;;;;4975118;28;20174;-68
2023/06/25 04:35:45;;;;;;;3.83;2.28;;;17.60;99.90;;;;;;4975312;28;20175;-69
2023/06/25 04:38:11;;;;;;;4.57;2.20;;;17.60;99.90;;;;;;4974911;28;20180;-68
2023/06/25 04:40:36;;;;;;;5.32;2.55;;;17.70;99.90;;;;;;4975140;28;20199;-69
2023/06/25 04:43:02;;;;;;;3.22;2.25;;;;;;;;;;4974878;28;20220;-68
2023/06/25 04:45:28;;;;;;;3.30;2.17;;;;;;;;;;4974811;28;20325;-69
2023/06/25 04:47:54;;;;;;;3.50;2.15;;;;;;;;;;4974829;28;20176;-69
2023/06/25 04:50:20;;;;;;;4.50;2.05;;;17.90;99.90;;;;;;4979178;28;20728;-69
2023/06/25 04:52:46;;;;;;;4.53;2.30;;;;;;;;;;4994117;28;20386;-69
2023/06/25 04:55:12;;;;;;;3.03;2.05;;;17.80;99.90;;;;;;4986151;28;20595;-69
2023/06/25 04:57:38;;;;;;;5.82;2.33;;;;;;;;;;4974643;28;20179;-68
2023/06/25 05:00:04;;;;;;;4.15;1.85;;;18.10;99.90;;;;;;4974737;28;20572;-68
2023/06/25 05:02:30;;;;;;;2.72;1.83;;;;;;;;;;4974634;28;20161;-68
2023/06/25 05:04:56;;;;;;;2.47;1.85;;;17.90;99.90;;;;;;4974452;28;20215;-69
2023/06/25 05:07:21;;;;;;;3.42;2.03;;;18.20;99.90;;;;;;4974673;28;20543;-68
2023/06/25 05:09:47;;;;;;;4.80;2.22;;;;;;;;;;4973231;28;20314;-68
2023/06/25 05:12:13;;;;;;;3.78;2.28;;;;;;;;;;4957143;28;20497;-69
2023/06/25 05:14:39;;;;;;;3.53;2.03;;;;;;;;;;4974380;28;20172;-69
2023/06/25 05:17:05;;;;;;;4.00;2.40;;;18.40;99.90;;;;;;4974056;28;20278;-69
2023/06/25 05:19:31;;;;;;;4.35;2.47;;;18.30;99.90;;;;;;4974225;28;20247;-70
2023/06/25 05:21:57;;;;;;;4.53;2.13;;;;;;;;;;4974209;28;20199;-68
2023/06/25 05:24:22;;;;;;;3.22;2.15;;;18.30;99.90;;;;;;4974061;28;20258;-67
2023/06/25 05:26:48;;;;;;;4.75;2.30;;;;;;;;;;4974058;28;20627;-68
2023/06/25 05:29:14;;;;;;;3.78;2.50;;;18.50;99.90;;;;;;4974235;28;20164;-68
2023/06/25 05:31:39;;;;;;;4.22;2.22;;;18.50;99.90;;;;;;4974074;28;20172;-68
2023/06/25 05:34:05;;;;;;;3.50;2.47;;;18.40;99.90;;;;;;4974165;28;20655;-67
2023/06/25 05:36:31;;;;;;;3.25;2.35;;;18.50;99.90;;;;;;4974333;28;20187;-68
2023/06/25 05:38:57;;;;;;;5.47;2.25;;;;;;;;;;4975199;28;20686;-68
2023/06/25 05:41:23;;;;;;;4.40;2.20;;;;;;;;;;4975515;28;20542;-68
2023/06/25 05:43:49;;;;;;;3.17;2.28;;;;;;;;;;4975777;28;20269;-68
2023/06/25 05:46:15;;;;;;;2.58;1.92;;;18.80;99.90;;;;;;4974160;28;20183;-68
2023/06/25 05:48:41;;;;;;;2.85;2.17;;;18.80;99.90;;;;;;4974403;28;20176;-68
2023/06/25 05:51:07;;;;;;;4.90;2.47;;;;;;;;;;4973889;28;20194;-68
2023/06/25 05:53:42;;;;;;;4.72;2.35;;;18.90;99.90;;;;;;4973750;28;20635;-69
2023/06/25 05:56:07;;;;;;;5.20;2.30;;;18.90;99.90;;;;;;4973586;28;20175;-69
2023/06/25 05:58:36;;;;;;;4.30;2.28;;;18.70;99.90;;;;;;4973503;28;20266;-68
2023/06/25 06:01:05;;;;;;;4.13;2.92;;;18.90;99.90;;;;;;4973573;28;20183;-69
2023/06/25 06:03:31;;;;;;;4.97;2.20;;;19.20;99.90;;;;;;4956123;28;20279;-69
2023/06/25 06:05:57;;;;;;;3.20;2.20;;;19.10;99.90;;;;;;4973520;28;20223;-69
2023/06/25 06:08:24;;;;;;;7.85;2.58;;;19.20;99.90;;;;;;4972585;28;20172;-68
2023/06/25 06:10:50;;;;;;;3.13;2.35;;;;;;;;;;4973298;28;20555;-69
2023/06/25 06:13:16;;;;;;;2.95;2.33;;;19.20;99.90;;;;;;4973229;28;20262;-69
2023/06/25 06:15:41;;;;;;;5.90;2.40;;;19.40;99.90;;;;;;4973358;28;20606;-69
2023/06/25 06:18:07;;;;;;;3.22;2.08;;;19.70;99.90;;;;;;4973199;28;20230;-68
2023/06/25 06:20:33;;;;;;;3.97;2.42;;;19.30;99.90;;;;;;4973451;28;20176;-69
2023/06/25 06:22:59;;;;;;;3.30;2.25;;;19.70;99.90;;;;;;4973081;28;20650;-68
2023/06/25 06:25:25;;;;;;;4.70;2.30;;;;;;;;;;4973069;28;20285;-68
2023/06/25 06:27:52;;;;;;;3.47;2.30;;;;;;;;;;4973106;28;20215;-68
2023/06/25 06:30:18;;;;;;;2.95;2.30;;;19.70;99.90;;;;;;4973084;28;20183;-68
2023/06/25 06:32:44;;;;;;;7.70;2.50;;;;;;;;;;4973049;28;20171;-68
2023/06/25 06:35:10;;;;;;;4.28;2.70;;;;;;;;;;4972969;28;20191;-68
2023/06/25 06:37:36;;;;;;;3.03;2.50;;;;;;;;;;4972926;28;20176;-69
2023/06/25 06:40:02;;;;;;;3.65;2.63;;;20.10;99.90;;;;;;4973026;28;20264;-68
2023/06/25 06:42:28;;;;;;;3.78;2.45;;;20.10;99.90;;;;;;4972621;28;20646;-68
2023/06/25 06:44:54;;;;;;;3.72;2.50;;;;;;;;;;4972718;28;20290;-69
2023/06/25 06:47:19;;;;;;;4.10;2.78;;;20.30;99.90;;;;;;4972899;28;20172;-68
2023/06/25 06:49:46;;;;;;;5.05;2.70;;;20.20;99.90;;;;;;4972789;28;20545;-68
2023/06/25 06:52:13;;;;;;;5.18;2.72;;;20.40;99.90;;;;;;4955374;28;20591;-68
2023/06/25 06:54:39;;;;;;;3.88;2.70;;;;;;;;;;4972607;28;20188;-68
2023/06/25 06:57:05;;;;;;;3.90;2.95;;;;;;;;;;4972165;28;20198;-68
2023/06/25 06:59:31;;;;;;;6.03;2.95;;;20.80;99.90;;;;;;4980180;28;20261;-68
2023/06/25 07:01:56;;;;;;;5.43;3.00;;;20.80;99.90;;;;;;4992062;28;20674;-68
2023/06/25 07:04:22;;;;;;;6.85;2.67;;;21.10;99.90;;;;;;4991857;28;20249;-68
2023/06/25 07:06:47;;;;;;;8.50;2.97;;;21.10;99.90;;;;;;4992002;28;20199;-68
2023/06/25 07:09:13;;;;;;;5.18;3.10;;;21.40;99.90;;;;;;4991954;28;20266;-69
2023/06/25 07:11:39;;;;;;;7.05;3.88;;;;;;;;;;4991906;28;20175;-68
2023/06/25 07:14:05;;;;;;;8.40;3.42;;;21.50;99.90;;;;;;4991822;28;20298;-69
2023/06/25 07:16:31;;;;;;;5.95;3.30;;;;;;;;;;4992204;28;20207;-69
2023/06/25 07:18:56;;;;;;;4.60;2.88;;;21.90;99.90;;;;;;4991398;28;20230;-69
2023/06/25 07:21:22;;;;;;;6.78;3.03;;;;;;;;;;4991928;28;20642;-68
2023/06/25 07:23:48;;;;;;;4.60;3.05;;;21.90;99.90;;;;;;4993270;28;20175;-67
2023/06/25 07:26:14;;;;;;;4.32;3.05;;;;;;;;;;4976332;28;20688;-68
2023/06/25 07:28:39;;;;;;;6.53;3.28;;;22.10;99.90;;;;;;4991510;28;20171;-68
2023/06/25 07:31:05;;;;;;;5.13;3.00;;;22.20;99.90;;;;;;4991841;28;20175;-68
2023/06/25 07:33:30;;;;;;;5.32;3.15;;;22.50;99.90;;;;;;4991451;28;20203;-68
2023/06/25 07:35:56;;;;;;;5.97;3.42;;;22.50;99.90;;;;;;4991544;28;20168;-68
2023/06/25 07:38:22;;;;;;;6.25;3.58;;;;;;;;;;4991621;28;20625;-67
2023/06/25 07:40:47;;;;;;;5.13;3.90;;;22.80;99.90;;;;;;4991407;28;20179;-67
2023/06/25 07:43:13;;;;;;;4.10;3.33;;;;;;;;;;4991556;28;20229;-68
2023/06/25 07:45:39;;;;;;;7.40;3.50;;;23.20;99.90;;;;;;4991929;28;20203;-68
2023/06/25 07:48:05;;;;;;;9.95;3.90;;;;;;;;;;4991719;28;20168;-69
2023/06/25 07:50:31;;;;;;;5.38;3.60;;;23.10;99.90;;;;;;4974011;28;20175;-69
2023/06/25 07:52:57;;;;;;;12.10;3.70;;;;;;;;;;4991949;28;20499;-68
2023/06/25 07:55:25;;;;;;;7.40;3.72;;;23.30;99.90;;;;;;4991342;28;20172;-68
2023/06/25 07:57:50;;;;;;;5.35;3.45;;;23.50;99.90;;;;;;4991470;28;20187;-69
2023/06/25 08:00:16;;;;;;;6.70;3.78;;;26.30;99.90;;;;;;4991504;28;20175;-69
2023/06/25 08:02:42;;;;;;;5.78;3.72;;;;;;;;;;4991438;28;20175;-68
2023/06/25 08:05:08;;;;;;;6.78;3.38;;;;;;;;;;4991395;28;20297;-69
2023/06/25 08:07:34;;;;;;;6.30;3.80;;;24.20;99.90;;;;;;4991462;28;20178;-68
2023/06/25 08:10:00;;;;;;;6.35;3.88;;;;;;;;;;4991353;28;20638;-68
2023/06/25 08:12:26;;;;;;;6.32;3.53;;;;;;;;;;4991280;28;20266;-69
2023/06/25 08:14:52;;;;;;;9.82;3.60;;;;;;;;;;4991395;28;20214;-69
2023/06/25 08:17:18;;;;;;;6.63;4.15;;;;;;;;;;4991053;28;20307;-69
2023/06/25 08:19:43;;;;;;;8.85;4.20;;;24.50;99.90;;;;;;4991126;28;20175;-68
2023/06/25 08:22:09;;;;;;;6.68;4.15;;;;;;;;;;4991262;28;20568;-68
2023/06/25 08:24:35;;;;;;;6.57;3.53;;;;;;;;;;4996505;28;20249;-68
2023/06/25 08:27:01;;;;;;;7.45;3.60;;;24.30;99.90;;;;;;4978262;28;20210;-69
2023/06/25 08:29:27;;;;;;;8.40;4.35;;;24.20;99.90;;;;;;4991928;28;20191;-68
2023/06/25 08:31:53;;;;;;;6.18;4.32;;;;;;;;;;4994452;28;20239;-67
2023/06/25 08:34:19;;;;;;;9.90;4.57;;;;;;;;;;4994975;28;20222;-68
2023/06/25 08:36:44;;;;;;;10.30;4.75;;;24.10;99.90;;;;;;4994643;28;20175;-67
2023/06/25 08:39:10;;;;;;;7.90;4.20;;;24.20;99.90;;;;;;4994664;28;20188;-69
2023/06/25 08:41:35;;;;;;;8.85;4.65;;;23.80;99.90;;;;;;4994782;28;20251;-68
2023/06/25 08:44:02;;;;;;;10.50;4.70;;;25.40;99.90;;;;;;4994896;28;20179;-69
2023/06/25 08:46:28;;;;;;;9.73;4.55;;;24.10;99.90;;;;;;4994945;28;20179;-67
2023/06/25 08:48:54;;;;;;;9.32;4.65;;;24.30;99.90;;;;;;4994858;28;20185;-68
2023/06/25 08:51:24;;;;;;;9.18;4.35;;;24.70;99.90;;;;;;4995075;28;20463;-68
2023/06/25 08:53:50;;;;;;;5.85;4.75;;;24.80;99.90;;;;;;4994950;28;20316;-68
2023/06/25 08:56:17;;;;;;;5.75;4.30;;;24.90;99.90;;;;;;4994590;28;20207;-70
2023/06/25 08:58:43;;;;;;;10.23;4.32;;;24.90;99.90;;;;;;4994903;28;20263;-68
2023/06/25 09:01:14;;;;;;;14.48;4.93;;;25.10;99.90;;;;;;4982281;28;20191;-69
2023/06/25 09:03:42;;;;;;;8.73;4.55;;;25.20;99.90;;;;;;4994730;28;20211;-70
2023/06/25 09:06:15;;;;;;;7.20;3.92;;;25.30;99.90;;;;;;4986436;28;20226;-68
2023/06/25 09:08:42;;;;;;;7.40;4.18;;;25.20;99.90;;;;;;4974920;28;20172;-67
2023/06/25 09:11:09;;;;;;;6.97;3.80;;;24.80;99.90;;;;;;4975703;28;20386;-68
2023/06/25 09:13:36;;;;;;;11.45;4.47;;;24.80;99.90;;;;;;4974495;28;20168;-67
2023/06/25 09:16:04;;;;;;;6.25;3.85;;;25.00;99.90;;;;;;4974610;28;20215;-69
2023/06/25 09:18:30;;;;;;;10.07;4.65;;;25.10;99.90;;;;;;4974172;28;20219;-69
2023/06/25 09:21:00;;;;;;;6.07;4.25;;;25.20;99.90;;;;;;4974347;28;20176;-68
2023/06/25 09:23:25;;;;;;;10.02;4.95;;;25.20;99.90;;;;;;4974351;28;20174;-68
2023/06/25 09:25:52;;;;;;;6.18;4.50;;;25.50;99.90;;;;;;4974311;28;20219;-68
2023/06/25 09:28:18;;;;;;;6.70;4.53;;;25.20;99.90;;;;;;4974202;28;20200;-69
2023/06/25 09:30:45;;;;;;;7.63;4.57;;;25.30;99.90;;;;;;4974494;28;20182;-67
2023/06/25 09:33:11;;;;;;;7.80;4.90;;;25.60;99.90;;;;;;4975154;28;20191;-68
2023/06/25 09:35:38;;;;;;;8.25;4.63;;;25.50;99.90;;;;;;4974839;28;20176;-69
2023/06/25 09:38:04;;;;;;;8.48;4.13;;;;;;;;;;4941843;28;20681;-69
2023/06/25 09:40:30;;;;;;;7.38;4.45;;;25.90;99.90;;;;;;4975064;28;20180;-69
2023/06/25 09:42:57;;;;;;;6.43;4.22;;;25.80;99.90;;;;;;4972965;28;20307;-68
2023/06/25 09:45:24;;;;;;;9.85;4.82;;;26.20;99.90;;;;;;4973827;28;20204;-68
2023/06/25 09:47:52;;;;;;;8.95;4.45;;;26.10;99.90;;;;;;4973820;28;20178;-67
2023/06/25 09:50:19;;;;;;;7.85;4.20;;;26.70;99.90;;;;;;4973868;28;20376;-67
2023/06/25 09:52:58;;;;;;;9.93;4.60;;;26.60;99.90;;;;;;4973937;28;20215;-68
2023/06/25 09:55:26;;;;;;;10.32;4.47;;;26.80;99.90;;;;;;4974087;28;20176;-68
2023/06/25 09:57:53;;;;;;;5.90;4.40;;;27.10;99.90;;;;;;4973579;28;20313;-68
2023/06/25 10:00:20;;;;;;;7.13;4.00;;;27.00;99.90;;;;;;4973424;28;20183;-68
2023/06/25 10:02:46;;;;;;;9.40;4.20;;;26.60;99.90;;;;;;4973496;28;20183;-67
2023/06/25 10:05:12;;;;;;;9.98;4.40;;;26.90;99.90;;;;;;4973461;28;20215;-68
2023/06/25 10:07:39;;;;;;;6.78;4.10;;;26.90;99.90;;;;;;4973598;28;20254;-68
2023/06/25 10:10:06;;;;;;;10.13;4.07;;;26.80;99.90;;;;;;4973503;28;20193;-68
2023/06/25 10:12:33;;;;;;;7.30;3.97;;;27.10;99.90;;;;;;4973554;28;20563;-68
2023/06/25 10:15:01;;;;;;;7.22;4.05;;;26.90;99.90;;;;;;4973259;28;20282;-68
2023/06/25 10:17:27;;;;;;;9.55;4.35;;;27.30;99.90;;;;;;4973278;28;20246;-68
2023/06/25 10:19:55;;;;;;;6.43;4.20;;;27.40;99.90;;;;;;4973537;28;20627;-68
2023/06/25 10:22:26;;;;;;;6.25;4.07;;;27.60;99.90;;;;;;4973409;28;20206;-68
2023/06/25 10:24:54;;;;;;;8.55;3.92;;;28.00;99.90;;;;;;4973354;28;20220;-68
2023/06/25 10:27:38;;;;;;;9.02;3.92;;;28.30;99.90;;;;;;4973367;28;20172;-68
2023/06/25 10:30:16;;;;;;;12.27;3.80;;;27.90;99.90;;;;;;4973483;28;20175;-67
2023/06/25 10:32:42;;;;;;;4.72;3.22;;;28.10;99.90;;;;;;4973333;28;20738;-67
2023/06/25 10:35:08;;;;;;;8.98;3.63;;;27.70;99.90;;;;;;4973063;28;20377;-69
2023/06/25 10:37:34;;;;;;;8.40;3.88;;;27.80;99.90;;;;;;4974841;28;20168;-70
2023/06/25 10:40:05;;;;;;;12.30;4.15;;;27.70;99.90;;;;;;4973969;28;20194;-68
2023/06/25 10:42:31;;;;;;;7.57;3.15;;;28.20;99.90;;;;;;4973340;28;20184;-68
2023/06/25 10:44:57;;;;;;;6.30;3.45;;;28.20;99.90;;;;;;4974830;28;20277;-70
2023/06/25 10:47:22;;;;;;;7.10;3.55;;;27.90;99.90;;;;;;4973308;28;20165;-67
2023/06/25 10:49:48;;;;;;;9.02;3.80;;;28.10;99.90;;;;;;4955961;28;20520;-66
2023/06/25 10:52:14;;;;;;;7.13;3.50;;;28.10;99.90;;;;;;4972760;28;20175;-67
2023/06/25 10:54:40;;;;;;;6.57;3.95;;;;;;;;;;4972524;28;20631;-68
2023/06/25 10:57:13;;;;;;;8.18;3.63;;;28.20;99.90;;;;;;4972756;28;20180;-69
2023/06/25 10:59:39;;;;;;;4.97;3.70;;;28.60;99.90;;;;;;4972652;28;20176;-68
2023/06/25 11:02:19;;;;;;;10.18;2.92;;;28.50;99.90;;;;;;4972752;28;20591;-69
2023/06/25 11:04:56;;;;;;;4.35;3.35;;;28.10;99.90;;;;;;4972494;28;20216;-68
2023/06/25 11:07:23;;;;;;;6.13;3.50;;;27.90;99.90;;;;;;4972711;28;20173;-67
2023/06/25 11:09:55;;;;;;;12.25;3.70;;;27.80;99.90;;;;;;4973079;28;20186;-68
2023/06/25 11:12:21;;;;;;;6.00;3.47;;;;;;;;;;4974024;28;20260;-67
2023/06/25 11:14:47;;;;;;;6.85;3.15;;;28.60;99.90;;;;;;4978106;28;20180;-69
2023/06/25 11:17:17;;;;;;;6.90;3.38;;;28.30;99.90;;;;;;4988216;28;20230;-68
2023/06/25 11:19:43;;;;;;;5.90;3.55;;;28.60;99.90;;;;;;4988035;28;20195;-68
2023/06/25 11:22:09;;;;;;;10.43;4.03;;;29.20;99.90;;;;;;4972161;28;20211;-67
2023/06/25 11:24:39;;;;;;;7.85;3.53;;;29.10;99.90;;;;;;4972353;28;20208;-68
2023/06/25 11:27:05;;;;;;;8.50;3.75;;;28.30;99.90;;;;;;4972272;28;20241;-67
2023/06/25 11:29:39;;;;;;;4.05;2.95;;;29.00;99.90;;;;;;4973574;28;20585;-69
2023/06/25 11:32:07;;;;;;;9.02;3.78;;;28.90;99.90;;;;;;4970907;28;20180;-68
2023/06/25 11:34:34;;;;;;;10.85;3.33;;;28.70;99.90;;;;;;4972508;28;20246;-70
2023/06/25 11:37:11;;;;;;;7.10;3.67;;;28.40;99.90;;;;;;4972260;28;20176;-71
2023/06/25 11:39:48;;;;;;;7.22;3.17;;;30.00;99.90;;;;;;4972215;28;20174;-68
2023/06/25 11:42:16;;;;;;;6.32;3.67;;;28.90;99.90;;;;;;4972180;28;20630;-66
2023/06/25 11:44:42;;;;;;;4.85;3.20;;;29.00;99.90;;;;;;4972028;28;20239;-66
2023/06/25 11:47:08;;;;;;;6.75;3.33;;;;;;;;;;4972213;28;20176;-67
2023/06/25 11:49:33;;;;;;;5.32;3.17;;;29.40;99.90;;;;;;4972029;28;20192;-66
2023/06/25 11:51:59;;;;;;;6.00;3.15;;;;;;;;;;4972104;28;20208;-67
2023/06/25 11:54:25;;;;;;;5.53;3.17;;;29.20;99.90;;;;;;4972119;28;20650;-67
2023/06/25 11:56:51;;;;;;;6.68;3.20;;;;;;;;;;4971998;28;20215;-66
2023/06/25 11:59:17;;;;;;;5.53;3.45;;;29.30;99.90;;;;;;4971706;28;20176;-65
2023/06/25 12:01:42;;;;;;;5.55;3.10;;;29.50;99.90;;;;;;4970447;28;20584;-67
2023/06/25 12:04:08;;;;;;;6.00;3.42;;;29.40;99.90;;;;;;4971756;28;20598;-67
2023/06/25 12:06:34;;;;;;;5.93;3.70;;;;;;;;;;4974455;28;20187;-66
2023/06/25 12:09:00;;;;;;;8.27;3.80;;;29.20;99.90;;;;;;4975414;28;20538;-67
2023/06/25 12:11:25;;;;;;;7.78;2.92;;;29.60;99.90;;;;;;4975645;28;20176;-68
2023/06/25 12:13:51;;;;;;;6.07;3.22;;;29.80;99.90;;;;;;4975615;28;20255;-68
2023/06/25 12:16:16;;;;;;;10.23;3.80;;;30.10;99.90;;;;;;4975350;28;20631;-67
2023/06/25 12:18:42;;;;;;;4.63;3.33;;;30.00;99.90;;;;;;4975296;28;20314;-68
2023/06/25 12:21:08;;;;;;;10.18;3.45;;;30.00;99.90;;;;;;4975496;28;20184;-68
2023/06/25 12:23:33;;;;;;;4.55;3.22;;;29.80;99.90;;;;;;4975329;28;20587;-67
2023/06/25 12:25:59;;;;;;;7.13;3.40;;;29.80;99.90;;;;;;4975348;28;20219;-68
2023/06/25 12:28:24;;;;;;;5.00;3.22;;;30.20;99.90;;;;;;4975845;28;20206;-69
2023/06/25 12:30:50;;;;;;;5.38;3.45;;;30.20;99.90;;;;;;4975237;28;20203;-70
2023/06/25 12:33:16;;;;;;;5.78;3.08;;;;;;;;;;4975448;28;20691;-70
2023/06/25 12:35:42;;;;;;;7.28;3.03;;;30.10;99.90;;;;;;4975285;28;20172;-68
2023/06/25 12:38:07;;;;;;;7.38;3.58;;;29.60;99.90;;;;;;4975243;28;20183;-68
2023/06/25 12:40:33;;;;;;;6.47;3.75;;;29.70;99.90;;;;;;4957923;28;20257;-68
2023/06/25 12:42:59;;;;;;;7.60;3.17;;;29.70;99.90;;;;;;4974988;28;20528;-68
2023/06/25 12:45:25;;;;;;;8.38;3.50;;;29.80;99.90;;;;;;4975176;28;20239;-67
2023/06/25 12:47:51;;;;;;;5.53;3.03;;;30.40;99.90;;;;;;4975071;28;20221;-69
2023/06/25 12:50:18;;;;;;;4.80;3.30;;;;;;;;;;4974886;28;20260;-69
2023/06/25 12:52:43;;;;;;;7.75;3.08;;;29.50;99.90;;;;;;4974792;28;20176;-67
2023/06/25 12:55:09;;;;;;;6.88;3.85;;;29.40;99.90;;;;;;4974876;28;20192;-67
2023/06/25 12:57:35;;;;;;;9.38;3.95;;;28.50;99.90;;;;;;4974687;28;20679;-67
2023/06/25 13:00:04;;;;;;;11.40;3.97;;;28.60;99.90;;;;;;4974702;28;20661;-67
2023/06/25 13:02:33;;;;;;;7.85;3.80;;;27.70;99.90;;;;;;4974533;28;20195;-67